ADDS METAR Data INFO
IDs: Format: Raw Decoded Include TAF

Data at: 0059 UTC 21 Oct 2017

METAR for:KCGC (Crystal River Arpt, FL, US)
Text:KCGC 210055Z AUTO 07006KT 10SM CLR 23/17 A3011 RMK AO2
Temperature: 23.0°C ( 73°F)
Dewpoint: 17.0°C ( 63°F) [RH = 69%]
Pressure (altimeter):30.11 inches Hg (1019.7 mb)
Winds:from the ENE (70 degrees) at 7 MPH (6 knots; 3.1 m/s)
Visibility:10 or more sm (16+ km)
Ceiling:at least 12,000 feet AGL
Clouds:sky clear below 12,000 feet AGL
QC Flag:automated observation with no human augmentation